createdAt,value
2023-03-31T00:00:43.717Z,13.60
2023-03-31T00:03:14.206Z,13.60
2023-03-31T00:05:48.414Z,13.60
2023-03-31T00:08:21.473Z,13.60
2023-03-31T00:10:52.223Z,13.60
2023-03-31T00:13:22.599Z,13.60
2023-03-31T00:15:54.396Z,13.60
2023-03-31T00:18:26.057Z,13.60
2023-03-31T00:20:58.885Z,13.60
2023-03-31T00:23:32.939Z,13.60
2023-03-31T00:26:04.089Z,13.40
2023-03-31T00:28:34.722Z,13.50
2023-03-31T00:31:05.748Z,13.40
2023-03-31T00:33:36.268Z,13.50
2023-03-31T00:36:06.969Z,13.50
2023-03-31T00:38:40.163Z,13.40
2023-03-31T00:41:10.806Z,13.40
2023-03-31T00:43:42.471Z,13.50
2023-03-31T00:46:21.872Z,13.40
2023-03-31T00:48:57.843Z,13.50
2023-03-31T00:51:31.197Z,13.40
2023-03-31T00:54:08.725Z,13.40
2023-03-31T00:56:42.515Z,13.40
2023-03-31T00:59:15.298Z,13.40
2023-03-31T01:01:50.783Z,13.40
2023-03-31T01:04:22.913Z,13.40
2023-03-31T01:07:01.107Z,13.30
2023-03-31T01:09:39.029Z,13.20
2023-03-31T01:12:12.956Z,13.30
2023-03-31T01:14:43.458Z,13.30
2023-03-31T01:17:19.535Z,13.20
2023-03-31T01:20:06.863Z,13.20
2023-03-31T01:23:03.347Z,13.30
2023-03-31T01:26:10.502Z,13.20
2023-03-31T01:28:44.430Z,13.20
2023-03-31T01:31:47.265Z,13.20
2023-03-31T01:34:53.647Z,13.20
2023-03-31T01:38:07.585Z,13.20
2023-03-31T01:41:01.955Z,13.20
2023-03-31T01:43:40.870Z,13.20
2023-03-31T01:46:19.438Z,13.20
2023-03-31T01:48:53.958Z,13.20
2023-03-31T01:51:35.686Z,13.10
2023-03-31T01:54:15.902Z,13.20
2023-03-31T01:56:52.847Z,13.10
2023-03-31T01:59:29.951Z,13.10
2023-03-31T02:02:04.727Z,13.10
2023-03-31T02:04:38.257Z,13.10
2023-03-31T02:07:13.880Z,13.10
2023-03-31T02:09:47.565Z,13.10
2023-03-31T02:12:25.058Z,13.10
2023-03-31T02:14:59.386Z,13.10
2023-03-31T02:17:33.140Z,13.00
2023-03-31T02:20:09.373Z,13.00
2023-03-31T02:22:41.552Z,13.00
2023-03-31T02:25:15.678Z,13.10
2023-03-31T02:27:55.564Z,13.00
2023-03-31T02:30:27.203Z,13.00
2023-03-31T02:32:58.449Z,12.90
2023-03-31T02:35:29.054Z,13.00
2023-03-31T02:38:01.635Z,13.00
2023-03-31T02:40:33.392Z,12.90
2023-03-31T02:43:06.625Z,12.90
2023-03-31T02:45:46.174Z,12.80
2023-03-31T02:48:21.747Z,12.80
2023-03-31T02:51:20.940Z,12.80
2023-03-31T02:54:01.443Z,12.80
2023-03-31T02:56:57.150Z,12.80
2023-03-31T02:59:44.068Z,12.80
2023-03-31T03:02:23.085Z,12.80
2023-03-31T03:05:19.087Z,12.80
2023-03-31T03:08:16.566Z,12.80
2023-03-31T03:11:00.511Z,12.90
2023-03-31T03:13:38.248Z,12.80
2023-03-31T03:16:19.445Z,12.80
2023-03-31T03:18:59.273Z,12.80
2023-03-31T03:21:30.299Z,12.80
2023-03-31T03:24:01.932Z,12.80
2023-03-31T03:26:35.502Z,12.80
2023-03-31T03:29:06.953Z,12.80
2023-03-31T03:31:40.001Z,12.80
2023-03-31T03:34:10.885Z,12.80
2023-03-31T03:36:41.597Z,12.80
2023-03-31T03:39:12.531Z,12.90
2023-03-31T03:41:43.108Z,12.80
2023-03-31T03:44:13.615Z,12.80
2023-03-31T03:46:46.677Z,12.80
2023-03-31T03:49:17.255Z,12.80
2023-03-31T03:51:47.730Z,12.80
2023-03-31T03:54:18.123Z,12.80
2023-03-31T03:56:48.551Z,12.70
2023-03-31T03:59:18.895Z,12.70
2023-03-31T04:01:52.937Z,12.70
2023-03-31T04:04:23.413Z,12.70
2023-03-31T04:06:54.377Z,12.70
2023-03-31T04:09:24.918Z,12.60
2023-03-31T04:11:55.315Z,12.60
2023-03-31T04:14:26.265Z,12.70
2023-03-31T04:16:59.485Z,12.70
2023-03-31T04:19:30.128Z,12.70
2023-03-31T04:22:05.120Z,12.70
2023-03-31T04:24:38.949Z,12.70
2023-03-31T04:27:10.741Z,12.70
2023-03-31T04:29:42.889Z,12.70
2023-03-31T04:32:21.873Z,12.70
2023-03-31T04:35:03.008Z,12.70
2023-03-31T04:37:35.036Z,12.70
2023-03-31T04:40:10.094Z,12.70
2023-03-31T04:42:40.776Z,12.70
2023-03-31T04:45:12.553Z,12.70
2023-03-31T04:47:45.613Z,12.70
2023-03-31T04:50:17.130Z,12.70
2023-03-31T04:52:47.849Z,12.60
2023-03-31T04:55:18.537Z,12.70
2023-03-31T04:57:48.999Z,12.70
2023-03-31T05:00:20.728Z,12.60
2023-03-31T05:02:54.337Z,12.70
2023-03-31T05:05:25.133Z,12.70
2023-03-31T05:07:56.739Z,12.70
2023-03-31T05:10:27.426Z,12.70
2023-03-31T05:12:57.851Z,12.70
2023-03-31T05:15:28.596Z,12.70
2023-03-31T05:18:01.793Z,12.70
2023-03-31T05:20:32.324Z,12.60
2023-03-31T05:23:03.055Z,12.60
2023-03-31T05:25:34.211Z,12.70
2023-03-31T05:28:06.286Z,12.60
2023-03-31T05:30:36.726Z,12.60
2023-03-31T05:33:09.775Z,12.60
2023-03-31T05:35:40.258Z,12.60
2023-03-31T05:38:10.698Z,12.60
2023-03-31T05:40:41.236Z,12.50
2023-03-31T05:43:11.636Z,12.60
2023-03-31T05:45:42.137Z,12.60
2023-03-31T05:48:15.099Z,12.50
2023-03-31T05:50:46.049Z,12.50
2023-03-31T05:53:16.577Z,12.50
2023-03-31T05:55:47.077Z,12.50
2023-03-31T05:58:17.477Z,12.40
2023-03-31T06:00:48.292Z,12.40
2023-03-31T06:03:21.709Z,12.50
2023-03-31T06:05:54.310Z,12.50
2023-03-31T06:08:25.166Z,12.50
2023-03-31T06:10:55.650Z,12.50
2023-03-31T06:13:26.408Z,12.50
2023-03-31T06:15:58.430Z,12.40
2023-03-31T06:18:33.039Z,12.50
2023-03-31T06:21:04.194Z,12.40
2023-03-31T06:23:35.259Z,12.40
2023-03-31T06:26:08.565Z,12.40
2023-03-31T06:28:39.579Z,12.50
2023-03-31T06:31:12.931Z,12.50
2023-03-31T06:33:46.713Z,12.50
2023-03-31T06:36:19.499Z,12.50
2023-03-31T06:38:50.121Z,12.40
2023-03-31T06:41:22.724Z,12.50
2023-03-31T06:43:53.693Z,12.50
2023-03-31T06:46:24.717Z,12.50
2023-03-31T06:48:57.738Z,12.50
2023-03-31T06:51:29.258Z,12.60
2023-03-31T06:54:00.668Z,12.60
2023-03-31T06:56:31.130Z,12.60
2023-03-31T06:59:01.597Z,12.60
2023-03-31T07:01:32.067Z,12.60
2023-03-31T07:04:05.117Z,12.60
2023-03-31T07:06:35.777Z,12.70
2023-03-31T07:09:06.271Z,12.60
2023-03-31T07:11:36.840Z,12.70
2023-03-31T07:14:07.375Z,12.70
2023-03-31T07:16:38.001Z,12.70
2023-03-31T07:19:11.329Z,12.70
2023-03-31T07:21:41.853Z,12.70
2023-03-31T07:24:12.364Z,12.70
2023-03-31T07:26:42.928Z,12.80
2023-03-31T07:29:13.730Z,12.70
2023-03-31T07:31:44.353Z,12.80
2023-03-31T07:34:17.522Z,12.70
2023-03-31T07:36:48.183Z,12.80
2023-03-31T07:39:18.738Z,12.80
2023-03-31T07:41:49.267Z,12.80
2023-03-31T07:44:20.604Z,12.80
2023-03-31T07:46:51.222Z,12.80
2023-03-31T07:49:24.274Z,12.80
2023-03-31T07:51:55.003Z,12.80
2023-03-31T07:54:25.599Z,12.80
2023-03-31T07:56:56.455Z,12.90
2023-03-31T07:59:26.983Z,12.80
2023-03-31T08:01:57.437Z,12.70
2023-03-31T08:04:30.850Z,12.70
2023-03-31T08:07:01.527Z,12.70
2023-03-31T08:09:32.048Z,12.70
2023-03-31T08:12:02.747Z,12.70
2023-03-31T08:14:40.642Z,12.70
2023-03-31T08:17:12.504Z,12.70
2023-03-31T08:19:45.547Z,12.70
2023-03-31T08:22:16.424Z,12.70
2023-03-31T08:24:46.879Z,12.80
2023-03-31T08:27:17.422Z,12.70
2023-03-31T08:29:50.291Z,12.80
2023-03-31T08:32:20.942Z,12.80
2023-03-31T08:34:54.674Z,12.90
2023-03-31T08:37:25.135Z,12.90
2023-03-31T08:39:55.667Z,12.90
2023-03-31T08:42:34.608Z,12.90
2023-03-31T08:45:09.767Z,12.90
2023-03-31T08:47:42.381Z,12.90
2023-03-31T08:50:19.562Z,12.90
2023-03-31T08:52:56.167Z,12.90
2023-03-31T08:55:32.763Z,12.90
2023-03-31T08:58:09.426Z,12.80
2023-03-31T09:00:47.297Z,12.90
2023-03-31T09:03:26.079Z,12.90
2023-03-31T09:06:05.222Z,12.90
2023-03-31T09:08:41.681Z,13.00
2023-03-31T09:11:16.178Z,13.00
2023-03-31T09:14:05.264Z,13.00
2023-03-31T09:16:40.900Z,13.00
2023-03-31T09:19:18.918Z,13.00
2023-03-31T09:21:56.745Z,13.00
2023-03-31T09:24:33.368Z,13.00
2023-03-31T09:27:06.601Z,13.00
2023-03-31T09:29:45.379Z,13.00
2023-03-31T09:32:17.772Z,12.90
2023-03-31T09:34:50.386Z,13.00
2023-03-31T09:37:27.015Z,13.00
2023-03-31T09:39:58.605Z,13.10
2023-03-31T09:42:29.196Z,13.20
2023-03-31T09:44:59.908Z,13.20
2023-03-31T09:47:39.396Z,13.30
2023-03-31T09:50:11.431Z,13.40
2023-03-31T09:52:47.068Z,13.50
2023-03-31T09:55:38.437Z,13.40
2023-03-31T09:58:11.701Z,13.50
2023-03-31T10:00:45.080Z,13.50
2023-03-31T10:03:19.187Z,13.50
2023-03-31T10:05:54.386Z,13.50
2023-03-31T10:08:34.788Z,13.50
2023-03-31T10:11:14.419Z,13.50
2023-03-31T10:13:50.652Z,13.50
2023-03-31T10:16:31.344Z,13.50
2023-03-31T10:19:16.916Z,13.50
2023-03-31T10:21:50.021Z,13.40
2023-03-31T10:24:24.718Z,13.50
2023-03-31T10:27:00.764Z,13.50
2023-03-31T10:29:34.336Z,13.50
2023-03-31T10:32:18.939Z,13.50
2023-03-31T10:34:49.876Z,13.60
2023-03-31T10:37:25.692Z,13.60
2023-03-31T10:40:06.139Z,13.50
2023-03-31T10:42:37.042Z,13.50
2023-03-31T10:45:36.979Z,13.60
2023-03-31T10:48:20.217Z,13.60
2023-03-31T10:50:52.048Z,13.70
2023-03-31T10:53:22.891Z,13.60
2023-03-31T10:56:13.735Z,13.60
2023-03-31T10:59:10.432Z,13.60
2023-03-31T11:01:56.711Z,13.60
2023-03-31T11:04:46.875Z,13.60
2023-03-31T11:07:31.430Z,13.70
2023-03-31T11:10:23.364Z,13.70
2023-03-31T11:13:03.045Z,13.60
2023-03-31T11:15:39.016Z,13.60
2023-03-31T11:18:36.310Z,13.60
2023-03-31T11:21:17.278Z,13.50
2023-03-31T11:23:53.855Z,13.50
2023-03-31T11:26:31.952Z,13.40
2023-03-31T11:29:09.782Z,13.40
2023-03-31T11:31:50.266Z,13.30
2023-03-31T11:34:32.534Z,13.50
2023-03-31T11:37:25.679Z,13.50
2023-03-31T11:40:08.141Z,13.50
2023-03-31T11:42:42.098Z,13.60
2023-03-31T11:45:21.948Z,13.70
2023-03-31T11:47:58.559Z,13.70
2023-03-31T11:50:33.742Z,13.70
2023-03-31T11:53:08.679Z,13.80
2023-03-31T11:55:41.504Z,13.70
2023-03-31T11:58:19.140Z,13.80
2023-03-31T12:00:56.890Z,13.80
2023-03-31T12:03:33.862Z,13.80
2023-03-31T12:06:09.856Z,13.90
2023-03-31T12:08:44.959Z,13.90
2023-03-31T12:11:19.761Z,13.90
2023-03-31T12:13:55.815Z,13.90
2023-03-31T12:16:37.401Z,13.80
2023-03-31T12:19:14.501Z,13.80
2023-03-31T12:21:50.306Z,13.70
2023-03-31T12:24:20.711Z,13.60
2023-03-31T12:27:02.403Z,13.50
2023-03-31T12:29:37.416Z,13.50
2023-03-31T12:32:16.897Z,13.40
2023-03-31T12:34:52.774Z,13.40
2023-03-31T12:38:11.753Z,13.30
2023-03-31T12:40:52.305Z,13.30
2023-03-31T12:43:44.126Z,13.30
2023-03-31T12:46:28.557Z,13.30
2023-03-31T12:49:19.487Z,13.30
2023-03-31T12:52:03.158Z,13.30
2023-03-31T12:54:48.958Z,13.40
2023-03-31T12:57:24.078Z,13.40
2023-03-31T13:00:30.420Z,13.50
2023-03-31T13:03:30.869Z,13.40
2023-03-31T13:06:03.953Z,13.40
2023-03-31T13:08:52.901Z,13.40
2023-03-31T13:11:25.150Z,13.50
2023-03-31T13:14:02.778Z,13.60
2023-03-31T13:16:34.061Z,13.50
2023-03-31T13:19:04.847Z,13.50
2023-03-31T13:21:56.512Z,13.50
2023-03-31T13:24:28.092Z,13.50
2023-03-31T13:27:01.273Z,13.50
2023-03-31T13:29:44.026Z,13.60
2023-03-31T13:32:32.499Z,13.50
2023-03-31T13:35:04.522Z,13.50
2023-03-31T13:38:02.819Z,13.40
2023-03-31T13:40:56.656Z,13.30
2023-03-31T13:43:48.864Z,13.30
2023-03-31T13:46:51.329Z,13.30
2023-03-31T13:49:43.598Z,13.30
2023-03-31T13:52:15.657Z,13.30
2023-03-31T13:55:19.429Z,13.30
2023-03-31T13:58:25.515Z,13.30
2023-03-31T14:01:33.958Z,13.20
2023-03-31T14:04:30.249Z,13.20
2023-03-31T14:07:03.946Z,13.20
2023-03-31T14:09:37.602Z,13.20
2023-03-31T14:12:33.462Z,13.20
2023-03-31T14:15:04.389Z,13.20
2023-03-31T14:17:39.037Z,13.10
2023-03-31T14:20:32.267Z,13.10
2023-03-31T14:23:16.901Z,12.90
2023-03-31T14:25:55.162Z,13.00
2023-03-31T14:28:45.677Z,13.00
2023-03-31T14:31:24.308Z,13.00
2023-03-31T14:34:15.047Z,12.90
2023-03-31T14:36:58.162Z,12.90
2023-03-31T14:39:32.547Z,13.00
2023-03-31T14:42:06.354Z,13.10
2023-03-31T14:44:41.320Z,13.10
2023-03-31T14:47:17.485Z,13.10
2023-03-31T14:49:47.892Z,13.10
2023-03-31T14:52:21.401Z,13.10
2023-03-31T14:54:51.994Z,13.20
2023-03-31T14:57:25.393Z,13.10
2023-03-31T14:59:58.889Z,13.20
2023-03-31T15:02:36.073Z,13.10
2023-03-31T15:05:09.900Z,13.10
2023-03-31T15:07:43.455Z,13.10
2023-03-31T15:10:22.276Z,13.10
2023-03-31T15:12:54.031Z,13.10
2023-03-31T15:15:27.175Z,13.10
2023-03-31T15:17:58.090Z,13.10
2023-03-31T15:20:31.962Z,13.00
2023-03-31T15:23:08.285Z,13.00
2023-03-31T15:25:43.553Z,13.00
2023-03-31T15:28:18.111Z,13.00
2023-03-31T15:31:06.910Z,13.00
2023-03-31T15:33:42.222Z,12.90
2023-03-31T15:36:15.275Z,12.90
2023-03-31T15:38:46.222Z,12.90
2023-03-31T15:41:18.108Z,12.90
2023-03-31T15:43:51.344Z,12.90
2023-03-31T15:46:40.013Z,13.00
2023-03-31T15:49:24.129Z,12.90
2023-03-31T15:51:55.310Z,12.90
2023-03-31T15:54:39.013Z,12.90
2023-03-31T15:57:11.204Z,12.90
2023-03-31T16:02:49.330Z,12.90
2023-03-31T16:05:43.600Z,12.90
2023-03-31T16:08:27.224Z,12.90
2023-03-31T16:11:07.584Z,12.90
2023-03-31T16:13:34.689Z,13.00
2023-03-31T16:13:40.990Z,12.90
2023-03-31T16:16:13.672Z,12.90
2023-03-31T16:18:50.019Z,12.90
2023-03-31T16:21:25.869Z,12.90
2023-03-31T16:23:59.010Z,12.90
2023-03-31T16:26:31.473Z,12.80
2023-03-31T16:29:04.207Z,12.90
2023-03-31T16:31:40.609Z,12.70
2023-03-31T16:34:14.488Z,12.70
2023-03-31T16:36:44.915Z,12.70
2023-03-31T16:39:15.592Z,12.70
2023-03-31T16:41:45.994Z,12.70
2023-03-31T16:44:16.463Z,12.80
2023-03-31T16:46:47.301Z,12.60
2023-03-31T16:49:20.862Z,12.50
2023-03-31T16:51:53.070Z,12.40
2023-03-31T16:54:23.442Z,12.50
2023-03-31T16:56:53.844Z,12.50
2023-03-31T16:59:24.877Z,12.40
2023-03-31T17:01:55.413Z,12.40
2023-03-31T17:04:34.134Z,12.40
2023-03-31T17:07:04.682Z,12.40
2023-03-31T17:09:35.157Z,12.30
2023-03-31T17:12:05.652Z,12.40
2023-03-31T17:14:35.986Z,12.30
2023-03-31T17:17:06.452Z,12.40
2023-03-31T17:19:39.531Z,12.20
2023-03-31T17:22:10.020Z,12.20
2023-03-31T17:24:40.952Z,12.20
2023-03-31T17:27:11.383Z,12.20
2023-03-31T17:29:41.822Z,12.20
2023-03-31T17:32:13.990Z,12.20
2023-03-31T17:34:48.176Z,12.20
2023-03-31T17:37:18.698Z,12.10
2023-03-31T17:39:49.324Z,12.20
2023-03-31T17:42:20.578Z,12.20
2023-03-31T17:44:51.956Z,12.10
2023-03-31T17:47:25.206Z,12.00
2023-03-31T17:49:58.292Z,12.00
2023-03-31T17:52:28.782Z,12.00
2023-03-31T17:54:59.741Z,12.00
2023-03-31T17:57:30.246Z,11.90
2023-03-31T18:00:00.766Z,11.90
2023-03-31T18:02:31.222Z,11.80
2023-03-31T18:05:04.509Z,11.80
2023-03-31T18:07:34.918Z,11.80
2023-03-31T18:10:08.263Z,11.80
2023-03-31T18:12:39.674Z,11.70
2023-03-31T18:15:11.902Z,11.70
2023-03-31T18:17:43.536Z,11.70
2023-03-31T18:20:16.906Z,11.70
2023-03-31T18:22:47.344Z,11.70
2023-03-31T18:25:17.886Z,11.70
2023-03-31T18:27:49.329Z,11.70
2023-03-31T18:30:19.993Z,11.70
2023-03-31T18:32:50.489Z,11.70
2023-03-31T18:35:23.568Z,11.60
2023-03-31T18:37:54.062Z,11.60
2023-03-31T18:40:24.442Z,11.70
2023-03-31T18:42:54.806Z,11.60
2023-03-31T18:45:25.527Z,11.50
2023-03-31T18:47:55.957Z,11.50
2023-03-31T18:50:30.798Z,11.60
2023-03-31T18:53:01.229Z,11.60
2023-03-31T18:55:31.735Z,11.50
2023-03-31T18:58:02.068Z,11.50
2023-03-31T19:00:32.589Z,11.50
2023-03-31T19:03:03.196Z,11.50
2023-03-31T19:05:36.766Z,11.50
2023-03-31T19:08:07.241Z,11.50
2023-03-31T19:10:37.641Z,11.50
2023-03-31T19:13:08.277Z,11.50
2023-03-31T19:15:38.895Z,11.50
2023-03-31T19:18:09.437Z,11.50
2023-03-31T19:20:42.545Z,11.50
2023-03-31T19:23:12.927Z,11.50
2023-03-31T19:25:43.502Z,11.50
2023-03-31T19:28:18.402Z,11.50
2023-03-31T19:30:52.690Z,11.50
2023-03-31T19:33:26.309Z,11.60
2023-03-31T19:35:59.682Z,11.50
2023-03-31T19:38:35.216Z,11.50
2023-03-31T19:41:07.063Z,11.60
2023-03-31T19:43:37.523Z,11.40
2023-03-31T19:46:08.220Z,11.40
2023-03-31T19:48:38.832Z,11.40
2023-03-31T19:51:13.647Z,11.40
2023-03-31T19:53:44.226Z,11.40
2023-03-31T19:56:19.548Z,11.40
2023-03-31T19:58:50.591Z,11.40
2023-03-31T20:01:23.347Z,11.50
2023-03-31T20:03:54.964Z,11.40
2023-03-31T20:06:29.614Z,11.50
2023-03-31T20:09:02.016Z,11.40
2023-03-31T20:11:33.867Z,11.40
2023-03-31T20:14:05.471Z,11.40
2023-03-31T20:16:35.888Z,11.40
2023-03-31T20:19:08.204Z,11.40
2023-03-31T20:21:43.036Z,11.40
2023-03-31T20:24:22.691Z,11.40
2023-03-31T20:26:53.688Z,11.40
2023-03-31T20:29:24.960Z,11.40
2023-03-31T20:31:58.448Z,11.30
2023-03-31T20:34:29.098Z,11.40
2023-03-31T20:37:02.488Z,11.30
2023-03-31T20:39:33.200Z,11.30
2023-03-31T20:42:03.614Z,11.30
2023-03-31T20:44:33.958Z,11.40
2023-03-31T20:47:04.360Z,11.30
2023-03-31T20:49:34.880Z,11.30
2023-03-31T20:52:08.166Z,11.30
2023-03-31T20:54:43.382Z,11.30
2023-03-31T20:57:13.731Z,11.30
2023-03-31T20:59:44.254Z,11.30
2023-03-31T21:02:16.501Z,11.30
2023-03-31T21:04:48.503Z,11.30
2023-03-31T21:07:22.997Z,11.30
2023-03-31T21:09:53.514Z,11.20
2023-03-31T21:12:24.062Z,11.20
2023-03-31T21:14:55.000Z,11.20
2023-03-31T21:17:25.417Z,11.30
2023-03-31T21:19:55.826Z,11.20
2023-03-31T21:22:29.093Z,11.20
2023-03-31T21:24:59.491Z,11.20
2023-03-31T21:27:29.927Z,11.20
2023-03-31T21:30:00.649Z,11.20
2023-03-31T21:32:32.819Z,11.20
2023-03-31T21:35:03.271Z,11.20
2023-03-31T21:37:36.896Z,11.20
2023-03-31T21:40:08.132Z,11.20
2023-03-31T21:42:38.870Z,11.20
2023-03-31T21:45:11.441Z,11.20
2023-03-31T21:47:41.943Z,11.20
2023-03-31T21:50:13.355Z,11.20
2023-03-31T21:52:46.519Z,11.10
2023-03-31T21:55:17.088Z,11.10
2023-03-31T21:57:47.446Z,11.10
2023-03-31T22:00:18.382Z,11.20
2023-03-31T22:02:49.020Z,11.10
2023-03-31T22:05:19.651Z,11.10
2023-03-31T22:07:52.782Z,11.10
2023-03-31T22:10:23.271Z,11.10
2023-03-31T22:12:53.652Z,11.10
2023-03-31T22:15:24.013Z,11.10
2023-03-31T22:17:54.503Z,11.20
2023-03-31T22:20:25.040Z,11.10
2023-03-31T22:22:58.113Z,11.10
2023-03-31T22:25:28.482Z,11.10
2023-03-31T22:27:58.893Z,11.10
2023-03-31T22:30:29.653Z,11.00
2023-03-31T22:33:00.285Z,11.10
2023-03-31T22:35:30.843Z,11.10
2023-03-31T22:38:06.143Z,11.00
2023-03-31T22:40:37.947Z,11.00
2023-03-31T22:43:08.686Z,11.10
2023-03-31T22:45:39.497Z,11.10
2023-03-31T22:48:10.329Z,11.10
2023-03-31T22:50:43.724Z,11.00
2023-03-31T22:53:17.116Z,11.10
2023-03-31T22:55:53.873Z,11.00
2023-03-31T22:58:25.237Z,11.00
2023-03-31T23:00:59.663Z,11.00
2023-03-31T23:03:30.290Z,11.00
2023-03-31T23:06:00.939Z,11.00
2023-03-31T23:08:35.923Z,11.00
2023-03-31T23:11:07.946Z,11.00
2023-03-31T23:13:38.627Z,11.00
2023-03-31T23:16:10.964Z,11.00
2023-03-31T23:18:46.182Z,11.00
2023-03-31T23:21:19.567Z,10.90
2023-03-31T23:23:54.330Z,11.00
2023-03-31T23:26:25.749Z,11.00
2023-03-31T23:28:56.214Z,11.00
2023-03-31T23:31:29.246Z,11.00
2023-03-31T23:34:00.931Z,11.00
2023-03-31T23:36:32.235Z,11.00
2023-03-31T23:39:06.906Z,11.00
2023-03-31T23:41:37.348Z,11.00
2023-03-31T23:44:08.048Z,11.00
2023-03-31T23:46:39.604Z,11.00
2023-03-31T23:49:10.029Z,11.00
2023-03-31T23:51:40.564Z,11.00
2023-03-31T23:54:13.533Z,11.00
2023-03-31T23:56:43.953Z,11.00
2023-03-31T23:59:14.352Z,11.00
